Time;durP1;ratioP1;P1;durP2;ratioP2;P2;SDS_P1;SDS_P2;PMS_P1;PMS_P2;Temp;Humidity;BMP_temperature;BMP_pressure;BME280_temperature;BME280_humidity;BME280_pressure;Samples;Min_cycle;Max_cycle;Signal;HPM_P1;HPM_P2
2022/06/13 00:01:11;;;;;;;12.75;6.07;;;14.80;99.90;;;;;;4934617;28;20035;-58
2022/06/13 00:03:37;;;;;;;14.95;4.72;;;14.80;99.90;;;;;;4940637;28;20058;-59
2022/06/13 00:06:03;;;;;;;13.93;4.88;;;14.70;99.90;;;;;;4937609;28;20043;-58
2022/06/13 00:08:29;;;;;;;11.32;4.60;;;14.70;99.90;;;;;;4943418;28;20541;-60
2022/06/13 00:10:54;;;;;;;15.13;5.90;;;14.70;99.90;;;;;;4948146;28;20047;-59
2022/06/13 00:13:20;;;;;;;10.70;4.88;;;14.70;99.90;;;;;;4937157;28;20445;-59
2022/06/13 00:15:46;;;;;;;13.93;6.20;;;14.70;99.90;;;;;;4956344;28;20039;-59
2022/06/13 00:18:11;;;;;;;15.20;5.75;;;14.70;99.90;;;;;;4948592;28;20047;-58
2022/06/13 00:20:37;;;;;;;14.85;5.93;;;14.70;99.90;;;;;;4943217;28;20130;-58
2022/06/13 00:23:03;;;;;;;16.13;5.55;;;14.70;99.90;;;;;;4957143;28;20250;-59
2022/06/13 00:25:29;;;;;;;16.25;6.35;;;14.80;99.90;;;;;;4971771;28;20058;-61
2022/06/13 00:27:55;;;;;;;18.65;6.90;;;14.80;99.90;;;;;;4950500;28;20050;-58
2022/06/13 00:30:21;;;;;;;16.40;6.15;;;14.80;99.90;;;;;;4945088;28;20058;-59
2022/06/13 00:32:47;;;;;;;18.67;6.70;;;14.80;99.90;;;;;;4944978;28;20062;-60
2022/06/13 00:35:13;;;;;;;15.90;6.57;;;14.80;99.90;;;;;;4943261;28;20097;-60
2022/06/13 00:37:39;;;;;;;20.63;7.68;;;14.80;99.90;;;;;;4949259;28;20131;-59
2022/06/13 00:40:06;;;;;;;17.88;6.22;;;14.80;99.90;;;;;;4960520;28;20039;-58
2022/06/13 00:42:32;;;;;;;14.98;6.15;;;14.80;99.90;;;;;;4951755;28;20050;-58
2022/06/13 00:45:07;;;;;;;18.27;6.68;;;14.80;99.90;;;;;;4948534;28;20043;-60
2022/06/13 00:47:33;;;;;;;19.15;7.40;;;14.70;99.90;;;;;;4945997;28;20038;-58
2022/06/13 00:50:02;;;;;;;13.32;6.35;;;14.80;99.90;;;;;;4947880;28;20055;-58
2022/06/13 00:52:48;;;;;;;19.38;7.07;;;14.70;99.90;;;;;;4948047;28;20142;-59
2022/06/13 00:55:22;;;;;;;18.95;7.25;;;14.70;99.90;;;;;;4947011;28;20508;-59
2022/06/13 00:57:48;;;;;;;15.70;6.28;;;14.70;99.90;;;;;;4951351;28;20046;-60
2022/06/13 01:00:17;;;;;;;19.38;8.27;;;14.60;99.90;;;;;;4950003;28;20038;-57
2022/06/13 01:02:46;;;;;;;14.05;6.97;;;14.60;99.90;;;;;;4947406;28;20056;-59
2022/06/13 01:05:16;;;;;;;16.77;7.05;;;14.50;99.90;;;;;;4942370;28;20470;-59
2022/06/13 01:07:42;;;;;;;16.00;6.60;;;14.50;99.90;;;;;;4948225;28;20525;-58
2022/06/13 01:12:53;;;;;;;16.70;7.20;;;14.40;99.90;;;;;;4947512;28;20409;-60
2022/06/13 01:15:43;;;;;;;18.55;7.10;;;14.40;99.90;;;;;;4933218;28;20047;-59
2022/06/13 01:18:15;;;;;;;16.77;6.18;;;14.40;99.90;;;;;;4942821;28;20518;-60
2022/06/13 01:21:09;;;;;;;18.23;6.88;;;14.40;99.90;;;;;;4943706;28;20043;-58
2022/06/13 01:23:43;;;;;;;14.85;6.82;;;14.40;99.90;;;;;;4954195;28;20061;-60
2022/06/13 01:26:09;;;;;;;14.48;6.82;;;14.40;99.90;;;;;;4940583;28;20050;-58
2022/06/13 01:29:02;;;;;;;20.67;6.82;;;14.40;99.90;;;;;;4942614;28;20041;-60
2022/06/13 01:32:02;;;;;;;11.70;5.77;;;14.50;99.90;;;;;;4944218;28;20139;-60
2022/06/13 01:34:56;;;;;;;14.40;7.15;;;14.40;99.90;;;;;;4946776;28;20102;-59
2022/06/13 01:37:30;;;;;;;14.75;6.38;;;14.40;99.90;;;;;;4939738;28;20039;-60
2022/06/13 01:40:24;;;;;;;17.08;6.50;;;14.40;99.90;;;;;;4929699;28;20038;-58
2022/06/13 01:42:55;;;;;;;14.68;6.18;;;14.40;99.90;;;;;;4940256;28;20065;-59
2022/06/13 01:45:43;;;;;;;16.60;6.68;;;14.40;99.90;;;;;;4957631;28;20127;-61
2022/06/13 01:48:46;;;;;;;16.65;6.65;;;14.30;99.90;;;;;;4937458;28;20070;-58
2022/06/13 01:51:14;;;;;;;19.77;5.68;;;14.30;99.90;;;;;;4936481;28;20055;-58
2022/06/13 01:54:15;;;;;;;11.25;5.20;;;14.20;99.90;;;;;;4940767;28;20043;-58
2022/06/13 01:57:13;;;;;;;12.85;5.43;;;14.20;99.90;;;;;;4937252;28;20066;-58
2022/06/13 02:00:10;;;;;;;12.95;5.13;;;14.20;99.90;;;;;;4938028;28;20089;-60
2022/06/13 02:02:56;;;;;;;12.82;5.38;;;14.20;99.90;;;;;;4934154;28;20452;-58
2022/06/13 02:05:25;;;;;;;10.82;4.80;;;14.20;99.90;;;;;;4942326;28;21058;-59
2022/06/13 02:07:57;;;;;;;13.32;5.00;;;14.20;99.90;;;;;;4940796;28;20050;-60
2022/06/13 02:10:29;;;;;;;13.88;4.90;;;14.20;99.90;;;;;;4920611;28;20038;-58
2022/06/13 02:13:02;;;;;;;11.65;4.35;;;14.20;99.90;;;;;;4950035;28;20054;-59
2022/06/13 02:15:52;;;;;;;11.10;4.60;;;14.30;99.90;;;;;;4939231;28;20049;-58
2022/06/13 02:18:30;;;;;;;7.63;3.80;;;14.20;99.90;;;;;;4937719;28;20047;-59
2022/06/13 02:21:03;;;;;;;12.25;4.50;;;14.20;99.90;;;;;;4952789;28;20178;-58
2022/06/13 02:23:33;;;;;;;11.55;4.60;;;14.20;99.90;;;;;;4930962;28;20464;-59
2022/06/13 02:26:22;;;;;;;12.63;4.43;;;14.30;99.90;;;;;;4939506;28;20074;-57
2022/06/13 02:29:19;;;;;;;13.05;3.88;;;14.20;99.90;;;;;;4933405;28;20262;-60
2022/06/13 02:31:53;;;;;;;11.90;4.38;;;14.30;99.90;;;;;;4941969;28;20161;-61
2022/06/13 02:34:35;;;;;;;13.82;4.63;;;14.30;99.90;;;;;;4935859;28;20117;-60
2022/06/13 02:37:11;;;;;;;14.85;4.40;;;14.30;99.90;;;;;;4931926;28;22484;-60
2022/06/13 02:39:55;;;;;;;11.52;3.90;;;14.30;99.90;;;;;;4932677;28;20447;-60
2022/06/13 02:42:23;;;;;;;11.85;3.78;;;14.30;99.90;;;;;;4932602;28;20126;-60
2022/06/13 02:45:08;;;;;;;7.47;3.65;;;14.30;99.90;;;;;;4928633;28;20042;-61
2022/06/13 02:47:37;;;;;;;11.05;4.20;;;14.30;99.90;;;;;;4925430;28;20570;-61
2022/06/13 02:50:05;;;;;;;9.45;3.70;;;14.30;99.90;;;;;;4929929;28;20051;-60
2022/06/13 02:52:39;;;;;;;9.35;3.40;;;14.30;99.90;;;;;;4934466;28;20042;-61
2022/06/13 02:55:09;;;;;;;14.57;3.45;;;14.30;99.90;;;;;;4913881;28;20703;-60
2022/06/13 02:57:52;;;;;;;8.55;2.70;;;14.30;99.90;;;;;;4931777;28;20069;-61
2022/06/13 03:00:23;;;;;;;13.00;3.70;;;14.30;99.90;;;;;;4932612;28;20320;-61
2022/06/13 03:02:58;;;;;;;15.00;4.18;;;14.30;99.90;;;;;;4944108;28;20493;-61
2022/06/13 03:05:44;;;;;;;11.10;3.17;;;14.30;99.90;;;;;;4945088;28;20077;-60
2022/06/13 03:08:40;;;;;;;9.20;3.33;;;14.30;99.90;;;;;;4947722;28;20425;-60
2022/06/13 03:11:11;;;;;;;8.43;3.20;;;14.20;99.90;;;;;;4950415;28;20053;-60
2022/06/13 03:13:40;;;;;;;9.73;3.53;;;14.20;99.90;;;;;;4934025;28;20101;-61
2022/06/13 03:16:31;;;;;;;11.40;3.80;;;14.20;99.90;;;;;;4946777;28;20169;-60
2022/06/13 03:19:08;;;;;;;10.95;3.95;;;14.20;99.90;;;;;;4941543;28;20562;-61
2022/06/13 03:21:40;;;;;;;8.02;2.85;;;14.10;99.90;;;;;;4942642;28;20660;-61
2022/06/13 03:24:36;;;;;;;9.68;3.38;;;14.10;99.90;;;;;;4937304;28;20414;-61
2022/06/13 03:27:09;;;;;;;7.70;3.10;;;14.00;99.90;;;;;;4947388;28;20438;-60
2022/06/13 03:29:42;;;;;;;8.45;3.08;;;14.00;99.90;;;;;;4940614;28;20034;-61
2022/06/13 03:32:22;;;;;;;8.50;2.95;;;13.90;99.90;;;;;;4938707;28;20043;-60
2022/06/13 03:34:54;;;;;;;7.70;2.60;;;13.90;99.90;;;;;;4941659;28;20046;-63
2022/06/13 03:37:26;;;;;;;6.28;2.42;;;13.90;99.90;;;;;;4933752;28;20054;-59
2022/06/13 03:40:18;;;;;;;10.13;2.85;;;13.90;99.90;;;;;;4942580;28;20043;-60
2022/06/13 03:42:51;;;;;;;8.70;2.75;;;14.00;99.90;;;;;;4935262;28;20090;-61
2022/06/13 03:45:51;;;;;;;7.43;2.58;;;13.90;99.90;;;;;;4941880;28;20039;-64
2022/06/13 03:48:37;;;;;;;6.03;2.92;;;13.90;99.90;;;;;;4936599;28;20054;-63
2022/06/13 03:51:14;;;;;;;8.43;2.20;;;13.80;99.90;;;;;;4947216;28;20137;-60
2022/06/13 03:53:47;;;;;;;7.63;2.33;;;13.80;99.90;;;;;;4942227;28;20057;-62
2022/06/13 03:56:25;;;;;;;7.38;2.40;;;13.80;99.90;;;;;;4949084;28;20513;-61
2022/06/13 03:59:06;;;;;;;9.65;2.30;;;13.80;99.90;;;;;;4937948;28;20055;-63
2022/06/13 04:01:39;;;;;;;5.63;1.92;;;13.80;99.90;;;;;;4939789;28;20102;-61
2022/06/13 04:04:05;;;;;;;5.95;2.28;;;13.90;99.90;;;;;;4945022;28;20594;-61
2022/06/13 04:06:38;;;;;;;6.40;2.20;;;13.90;99.90;;;;;;4945992;28;20039;-63
2022/06/13 04:09:12;;;;;;;4.90;1.90;;;13.90;99.90;;;;;;4953259;28;20093;-59
2022/06/13 04:11:58;;;;;;;8.07;1.92;;;13.90;99.90;;;;;;4939232;28;20049;-61
2022/06/13 04:14:30;;;;;;;10.25;3.55;;;13.90;99.90;;;;;;4939735;28;20059;-64
2022/06/13 04:17:24;;;;;;;6.32;2.38;;;13.90;99.90;;;;;;4940741;28;20097;-63
2022/06/13 04:20:16;;;;;;;10.88;2.60;;;13.80;99.90;;;;;;4934417;28;20074;-64
2022/06/13 04:22:52;;;;;;;6.25;2.20;;;13.80;99.90;;;;;;4930418;28;20601;-63
2022/06/13 04:25:50;;;;;;;10.48;3.53;;;13.90;99.90;;;;;;4929404;28;20035;-62
2022/06/13 04:28:49;;;;;;;4.72;1.75;;;13.90;99.90;;;;;;4919405;28;21129;-61
2022/06/13 04:31:18;;;;;;;5.90;1.85;;;13.60;99.90;;;;;;4927183;28;20058;-64
2022/06/13 04:34:00;;;;;;;5.10;1.30;;;13.20;99.90;;;;;;4915284;28;20812;-62
2022/06/13 04:36:27;;;;;;;5.90;1.20;;;12.70;99.90;;;;;;4937818;28;20043;-60
2022/06/13 04:38:55;;;;;;;4.88;1.10;;;12.60;99.90;;;;;;4930746;28;20506;-65
2022/06/13 04:41:27;;;;;;;5.28;1.48;;;12.50;99.90;;;;;;4931539;28;20861;-63
2022/06/13 04:43:59;;;;;;;4.40;1.17;;;12.50;99.90;;;;;;4942637;28;20064;-60
2022/06/13 04:46:27;;;;;;;4.38;2.15;;;12.60;99.90;;;;;;4937962;28;20482;-63
2022/06/13 04:48:57;;;;;;;4.22;1.30;;;12.60;99.90;;;;;;4935275;28;20121;-63
2022/06/13 04:51:37;;;;;;;4.88;1.73;;;12.70;99.90;;;;;;4938511;28;20050;-61
2022/06/13 04:54:26;;;;;;;6.95;1.40;;;12.90;99.90;;;;;;4934365;28;20715;-62
2022/06/13 04:56:56;;;;;;;5.35;1.55;;;13.00;99.90;;;;;;4928232;28;20058;-60
2022/06/13 04:59:22;;;;;;;4.28;1.55;;;13.00;99.90;;;;;;4930572;28;20038;-63
2022/06/13 05:01:50;;;;;;;4.40;1.20;;;13.00;99.90;;;;;;4928809;28;22285;-64
2022/06/13 05:04:25;;;;;;;4.78;1.42;;;13.10;99.90;;;;;;4926624;28;20402;-61
2022/06/13 05:06:57;;;;;;;5.03;1.50;;;13.20;99.90;;;;;;4935883;28;20061;-61
2022/06/13 05:09:30;;;;;;;4.47;1.50;;;13.20;99.90;;;;;;4943022;28;20517;-62
2022/06/13 05:12:04;;;;;;;4.20;1.52;;;13.10;99.90;;;;;;4945805;28;20054;-61
2022/06/13 05:14:51;;;;;;;6.32;2.92;;;13.10;99.90;;;;;;4963443;23;20703;-55
2022/06/13 05:17:32;;;;;;;5.32;1.40;;;13.20;99.90;;;;;;4977185;28;20384;-56
2022/06/13 05:20:09;;;;;;;4.22;1.85;;;13.30;99.90;;;;;;4992834;28;20092;-56
2022/06/13 05:23:07;;;;;;;5.38;1.50;;;13.40;99.90;;;;;;4973017;28;20544;-57
2022/06/13 05:25:44;;;;;;;4.82;1.90;;;13.50;99.90;;;;;;4978192;28;20113;-56
2022/06/13 05:28:12;;;;;;;6.90;1.73;;;13.60;99.90;;;;;;4968165;28;20556;-56
2022/06/13 05:30:44;;;;;;;7.78;1.75;;;13.70;99.90;;;;;;4960946;28;20313;-57
2022/06/13 05:33:14;;;;;;;5.70;1.58;;;13.80;99.90;;;;;;4942399;28;20085;-57
2022/06/13 05:35:45;;;;;;;5.05;1.60;;;13.90;99.90;;;;;;4977763;28;20309;-58
2022/06/13 05:38:24;;;;;;;4.55;1.70;;;14.00;99.90;;;;;;4967370;28;20057;-57
2022/06/13 05:40:50;;;;;;;5.55;1.75;;;14.10;99.90;;;;;;4955904;28;20434;-58
2022/06/13 05:43:16;;;;;;;7.07;2.10;;;14.10;99.90;;;;;;4939586;28;20035;-59
2022/06/13 05:45:42;;;;;;;7.68;2.08;;;14.20;99.90;;;;;;4974124;28;20512;-59
2022/06/13 05:48:20;;;;;;;6.28;1.83;;;14.30;99.90;;;;;;4974461;28;20097;-58
2022/06/13 05:50:46;;;;;;;7.57;1.60;;;14.40;99.90;;;;;;4976748;28;20049;-59
2022/06/13 05:53:14;;;;;;;6.30;2.17;;;14.40;99.90;;;;;;4964319;28;20286;-57
2022/06/13 05:55:41;;;;;;;4.75;2.35;;;14.40;99.90;;;;;;4976187;28;20058;-54
2022/06/13 05:58:08;;;;;;;7.38;1.83;;;14.50;99.90;;;;;;4967867;28;20050;-58
2022/06/13 06:00:41;;;;;;;7.70;2.75;;;14.50;99.90;;;;;;4969016;28;20256;-53
2022/06/13 06:03:07;;;;;;;5.07;1.40;;;14.40;99.90;;;;;;4967934;28;20050;-57
2022/06/13 06:05:32;;;;;;;5.93;1.60;;;14.40;99.90;;;;;;4963566;28;20042;-59
2022/06/13 06:07:58;;;;;;;7.95;1.77;;;14.50;99.90;;;;;;4965419;28;20053;-56
2022/06/13 06:10:30;;;;;;;5.57;1.73;;;14.50;99.90;;;;;;4962220;28;20093;-53
2022/06/13 06:12:55;;;;;;;8.90;2.65;;;14.50;99.90;;;;;;4960521;28;20046;-58
2022/06/13 06:15:22;;;;;;;7.97;2.00;;;14.50;99.90;;;;;;4944574;28;20046;-58
2022/06/13 06:17:47;;;;;;;10.35;2.30;;;14.60;99.90;;;;;;4959010;28;20038;-58
2022/06/13 06:20:22;;;;;;;6.25;1.98;;;14.80;99.90;;;;;;4924272;28;20291;-58
2022/06/13 06:22:48;;;;;;;7.10;1.75;;;14.80;99.90;;;;;;4976196;28;20074;-58
2022/06/13 06:25:14;;;;;;;6.95;1.80;;;14.80;99.90;;;;;;4962139;28;20269;-56
2022/06/13 06:27:40;;;;;;;7.45;2.03;;;14.80;99.90;;;;;;4962490;28;20640;-59
2022/06/13 06:30:07;;;;;;;5.70;2.22;;;14.70;99.90;;;;;;4960206;28;20425;-54
2022/06/13 06:32:33;;;;;;;9.60;2.25;;;14.60;99.90;;;;;;4945044;28;20049;-56
2022/06/13 06:34:59;;;;;;;6.43;2.13;;;14.50;99.90;;;;;;4967275;28;20035;-55
2022/06/13 06:37:24;;;;;;;7.57;1.75;;;14.40;99.90;;;;;;4957890;28;20179;-56
2022/06/13 06:39:50;;;;;;;9.63;1.73;;;14.40;99.90;;;;;;4962297;28;20076;-57
2022/06/13 06:42:16;;;;;;;7.20;1.63;;;14.50;99.90;;;;;;4962991;28;20519;-55
2022/06/13 06:44:42;;;;;;;9.23;1.80;;;14.70;99.90;;;;;;4965053;28;20078;-56
2022/06/13 06:47:08;;;;;;;6.47;1.70;;;14.70;99.90;;;;;;4960632;28;20415;-58
2022/06/13 06:49:37;;;;;;;12.00;1.73;;;14.70;99.90;;;;;;4963154;28;20043;-57
2022/06/13 06:52:04;;;;;;;11.48;2.08;;;14.70;99.90;;;;;;4962323;28;20101;-56
2022/06/13 06:59:59;;;;;;;;;;;14.90;99.90;;;;;;4948308;28;20042;-58
2022/06/13 07:02:28;;;;;;;6.60;1.90;;;15.10;99.90;;;;;;4959969;28;19929;-58
2022/06/13 07:05:05;;;;;;;10.82;2.72;;;15.30;99.90;;;;;;4954952;28;20050;-55
2022/06/13 07:07:31;;;;;;;9.82;1.77;;;15.40;99.90;;;;;;4952230;28;20181;-57
2022/06/13 07:09:56;;;;;;;8.82;1.70;;;15.20;99.90;;;;;;4956194;28;20034;-57
2022/06/13 07:12:23;;;;;;;6.82;1.55;;;14.80;99.90;;;;;;4955650;28;20051;-53
2022/06/13 07:14:49;;;;;;;6.18;1.50;;;14.70;99.90;;;;;;4952104;28;20046;-54
2022/06/13 07:17:15;;;;;;;10.23;2.92;;;14.60;99.90;;;;;;4959881;28;20042;-58
2022/06/13 07:19:44;;;;;;;7.72;1.60;;;14.60;99.90;;;;;;4956265;28;20038;-57
2022/06/13 07:22:13;;;;;;;7.18;1.80;;;14.80;99.90;;;;;;4955660;28;20084;-58
2022/06/13 07:24:39;;;;;;;10.90;1.75;;;15.00;99.90;;;;;;4953511;28;20125;-53
2022/06/13 07:27:05;;;;;;;11.18;2.00;;;15.00;99.90;;;;;;4954001;28;20073;-56
2022/06/13 07:29:31;;;;;;;7.47;2.25;;;15.20;99.90;;;;;;4956053;28;20509;-59
2022/06/13 07:32:04;;;;;;;5.55;1.33;;;15.40;99.90;;;;;;4969455;28;20050;-60
2022/06/13 07:34:32;;;;;;;7.85;1.75;;;15.60;99.90;;;;;;4955697;28;20050;-53
2022/06/13 07:37:01;;;;;;;6.13;1.50;;;15.60;99.90;;;;;;4961408;28;20160;-60
2022/06/13 07:39:26;;;;;;;8.75;2.47;;;15.40;99.90;;;;;;4956840;28;20053;-59
2022/06/13 07:41:53;;;;;;;4.88;1.52;;;15.20;99.90;;;;;;4977211;28;20120;-55
2022/06/13 07:44:22;;;;;;;8.55;1.73;;;15.20;99.90;;;;;;4954587;28;20112;-60
2022/06/13 07:46:50;;;;;;;7.25;1.63;;;15.30;99.90;;;;;;4952401;28;20133;-59
2022/06/13 07:49:17;;;;;;;14.52;2.38;;;15.30;99.90;;;;;;4965881;28;20047;-60
2022/06/13 07:51:43;;;;;;;7.43;1.60;;;15.40;99.90;;;;;;4937631;28;20042;-60
2022/06/13 07:54:09;;;;;;;5.93;1.38;;;15.40;99.90;;;;;;4947448;28;20105;-59
2022/06/13 07:56:36;;;;;;;9.23;1.38;;;15.50;99.90;;;;;;4968938;28;20278;-59
2022/06/13 07:59:03;;;;;;;6.78;1.45;;;15.60;99.90;;;;;;4955203;28;20038;-60
2022/06/13 08:01:29;;;;;;;6.85;1.45;;;15.40;99.90;;;;;;4948932;28;20250;-59
2022/06/13 08:03:55;;;;;;;6.45;1.67;;;15.40;99.90;;;;;;4953333;28;20078;-58
2022/06/13 08:06:22;;;;;;;6.30;1.40;;;15.60;99.90;;;;;;4939863;28;20778;-58
2022/06/13 08:08:49;;;;;;;7.45;1.45;;;15.50;99.90;;;;;;4956595;28;20034;-56
2022/06/13 08:11:18;;;;;;;6.97;1.35;;;15.60;99.90;;;;;;4945325;28;20049;-60
2022/06/13 08:13:44;;;;;;;9.40;1.48;;;15.80;99.90;;;;;;4954435;28;20111;-54
2022/06/13 08:16:10;;;;;;;8.82;1.33;;;15.90;99.90;;;;;;4948916;28;20038;-58
2022/06/13 08:18:37;;;;;;;6.80;1.30;;;16.10;99.90;;;;;;4941818;28;20050;-56
2022/06/13 08:21:04;;;;;;;6.68;1.48;;;16.30;99.90;;;;;;4932707;28;20038;-56
2022/06/13 08:23:30;;;;;;;7.50;1.70;;;16.50;99.90;;;;;;4948047;28;20414;-60
2022/06/13 08:25:56;;;;;;;8.98;2.08;;;16.30;99.90;;;;;;4956417;28;20070;-58
2022/06/13 08:28:22;;;;;;;6.88;1.40;;;16.10;99.90;;;;;;4939191;28;20672;-58
2022/06/13 08:31:01;;;;;;;9.10;1.63;;;15.70;99.90;;;;;;4953672;28;20045;-60
2022/06/13 08:33:28;;;;;;;10.73;2.13;;;15.60;99.90;;;;;;4978859;28;20061;-55
2022/06/13 08:35:54;;;;;;;10.57;1.95;;;15.50;99.90;;;;;;4952459;28;20050;-60
2022/06/13 08:38:20;;;;;;;10.45;1.83;;;15.50;99.90;;;;;;4965613;28;20454;-58
2022/06/13 08:40:59;;;;;;;8.48;1.50;;;15.50;99.90;;;;;;4969904;28;20050;-61
2022/06/13 08:43:46;;;;;;;8.98;2.08;;;15.80;99.90;;;;;;4948143;28;20320;-59
2022/06/13 08:46:43;;;;;;;7.47;1.35;;;16.20;99.90;;;;;;4974023;28;20046;-58
2022/06/13 08:49:11;;;;;;;5.47;1.35;;;16.20;99.90;;;;;;4963942;28;20679;-57
2022/06/13 08:51:46;;;;;;;8.50;1.83;;;15.90;99.90;;;;;;4951325;28;20077;-59
2022/06/13 08:54:17;;;;;;;12.13;2.10;;;15.80;99.90;;;;;;4959858;28;20145;-57
2022/06/13 08:56:43;;;;;;;9.73;1.58;;;15.60;99.90;;;;;;4955499;28;20104;-58
2022/06/13 08:59:24;;;;;;;6.97;2.03;;;15.90;99.90;;;;;;4964701;28;20480;-60
2022/06/13 09:01:58;;;;;;;8.18;1.83;;;16.10;99.90;;;;;;4959580;28;20050;-58
2022/06/13 09:04:35;;;;;;;8.02;2.33;;;15.90;99.90;;;;;;4959307;28;20079;-61
2022/06/13 09:07:22;;;;;;;7.30;2.08;;;15.70;99.90;;;;;;4937847;28;20041;-61
2022/06/13 09:09:57;;;;;;;10.13;2.45;;;15.60;99.90;;;;;;4960081;28;20608;-57
2022/06/13 09:12:37;;;;;;;8.57;2.38;;;15.50;99.90;;;;;;4961314;28;20053;-56
2022/06/13 09:15:09;;;;;;;10.82;2.45;;;15.30;99.90;;;;;;4963657;28;20046;-55
2022/06/13 09:17:48;;;;;;;14.02;2.65;;;15.40;99.90;;;;;;4967574;28;20497;-58
2022/06/13 09:20:31;;;;;;;11.23;1.98;;;15.70;99.90;;;;;;4958534;28;20042;-58
2022/06/13 09:23:18;;;;;;;9.07;1.88;;;16.10;99.90;;;;;;4959837;28;22727;-58
2022/06/13 09:25:55;;;;;;;8.10;1.48;;;16.50;99.90;;;;;;4970993;28;20051;-58
2022/06/13 09:28:27;;;;;;;9.25;2.08;;;16.60;99.90;;;;;;4967506;28;20188;-55
2022/06/13 09:31:06;;;;;;;7.43;1.50;;;15.90;99.90;;;;;;4962904;28;20046;-60
2022/06/13 09:33:36;;;;;;;10.40;2.22;;;15.70;99.90;;;;;;4960588;28;20057;-58
2022/06/13 09:36:32;;;;;;;10.35;2.08;;;15.10;99.90;;;;;;4964888;28;20057;-59
2022/06/13 09:39:03;;;;;;;9.55;3.08;;;15.00;99.90;;;;;;4951639;28;20501;-58
2022/06/13 09:41:50;;;;;;;13.52;2.28;;;14.90;99.90;;;;;;4965330;28;20043;-59
2022/06/13 09:44:37;;;;;;;10.18;2.00;;;14.90;99.90;;;;;;4955243;28;20043;-54
2022/06/13 09:47:22;;;;;;;8.50;1.70;;;15.00;99.90;;;;;;4957886;28;20084;-59
2022/06/13 09:50:08;;;;;;;8.45;2.83;;;15.00;99.90;;;;;;4960087;28;20442;-55
2022/06/13 09:52:56;;;;;;;9.18;1.67;;;15.00;99.90;;;;;;4921281;28;20086;-55
2022/06/13 09:55:30;;;;;;;9.23;2.38;;;15.30;99.90;;;;;;4960019;28;21467;-61
2022/06/13 09:58:12;;;;;;;6.50;1.90;;;15.30;99.90;;;;;;4952125;28;20093;-56
2022/06/13 10:00:46;;;;;;;7.88;2.10;;;15.50;99.90;;;;;;4964277;28;20055;-53
2022/06/13 10:03:21;;;;;;;;;;;16.10;99.90;;;;;;4980075;28;20050;-59
2022/06/13 10:05:56;;;;;;;;;;;16.40;99.90;;;;;;4956462;28;19926;-59
2022/06/13 10:08:24;;;;;;;7.55;1.67;;;15.80;99.90;;;;;;4957501;28;20005;-60
2022/06/13 10:11:10;;;;;;;8.80;1.90;;;15.50;99.90;;;;;;4955488;28;20061;-58
2022/06/13 10:14:04;;;;;;;9.52;1.98;;;15.10;99.90;;;;;;4973856;28;20046;-59
2022/06/13 10:16:36;;;;;;;12.18;2.50;;;14.90;99.90;;;;;;4949770;28;20248;-58
2022/06/13 10:19:30;;;;;;;9.02;2.67;;;14.70;99.90;;;;;;4950883;28;21481;-59
2022/06/13 10:22:25;;;;;;;11.55;2.45;;;14.70;99.90;;;;;;4951397;28;20038;-60
2022/06/13 10:25:10;;;;;;;11.55;2.58;;;14.90;99.90;;;;;;4953089;28;20054;-60
2022/06/13 10:27:57;;;;;;;13.75;2.75;;;15.10;99.90;;;;;;4951104;28;21351;-55
2022/06/13 10:31:09;;;;;;;16.23;3.15;;;15.20;99.90;;;;;;4966465;28;20128;-54
2022/06/13 10:33:46;;;;;;;8.18;2.17;;;15.40;99.90;;;;;;4905666;29;20123;-61
2022/06/13 10:36:24;;;;;;;11.00;2.17;;;15.70;99.90;;;;;;4969088;28;20497;-56
2022/06/13 10:39:11;;;;;;;14.43;3.17;;;15.70;99.90;;;;;;4951711;28;20069;-58
2022/06/13 10:41:41;;;;;;;11.85;2.38;;;15.90;99.90;;;;;;4961945;28;20043;-55
2022/06/13 10:44:11;;;;;;;8.75;1.90;;;16.10;99.90;;;;;;4963354;28;20072;-59
2022/06/13 10:46:42;;;;;;;7.75;2.10;;;16.00;99.90;;;;;;4960546;28;20046;-55
2022/06/13 10:49:17;;;;;;;7.63;1.73;;;15.70;99.90;;;;;;4965315;28;20118;-61
2022/06/13 10:51:45;;;;;;;9.15;2.42;;;15.60;99.90;;;;;;4957563;28;20621;-60
2022/06/13 10:54:24;;;;;;;9.88;2.25;;;15.80;99.90;;;;;;4939188;28;20533;-59
2022/06/13 10:56:55;;;;;;;7.68;2.22;;;16.10;99.90;;;;;;4962853;28;20144;-56
2022/06/13 10:59:32;;;;;;;10.55;2.40;;;16.20;99.90;;;;;;4953652;28;20051;-57
2022/06/13 11:02:18;;;;;;;9.05;2.25;;;16.00;99.90;;;;;;4958917;28;20122;-54
2022/06/13 11:04:44;;;;;;;9.18;2.10;;;16.00;99.90;;;;;;4971771;28;20042;-58
2022/06/13 11:07:14;;;;;;;6.57;1.80;;;16.40;99.90;;;;;;4959531;28;20041;-59
2022/06/13 11:09:54;;;;;;;11.88;2.25;;;16.70;99.90;;;;;;4954148;28;20057;-55
2022/06/13 11:12:21;;;;;;;13.15;2.20;;;16.70;99.90;;;;;;4958946;28;20076;-59
2022/06/13 11:22:57;;;;;;;9.23;2.42;;;16.10;99.90;;;;;;4941792;28;20558;-57
2022/06/13 11:25:29;;;;;;;10.57;2.70;;;16.40;99.90;;;;;;4934711;28;20053;-58
2022/06/13 11:28:22;;;;;;;11.38;1.98;;;16.50;99.90;;;;;;4938169;28;20046;-57
2022/06/13 11:30:50;;;;;;;10.35;1.90;;;16.10;99.90;;;;;;4948888;28;20054;-58
2022/06/13 11:33:23;;;;;;;8.80;2.20;;;15.90;99.90;;;;;;4928515;28;20034;-58
2022/06/13 11:36:11;;;;;;;7.72;1.90;;;15.90;99.90;;;;;;4955491;28;20077;-58
2022/06/13 11:38:49;;;;;;;11.82;2.55;;;16.40;99.90;;;;;;4941261;28;20054;-57
2022/06/13 11:41:39;;;;;;;11.65;2.75;;;16.50;99.90;;;;;;4933063;28;20042;-58
2022/06/13 11:44:19;;;;;;;13.68;2.38;;;16.40;99.90;;;;;;4967471;28;20109;-58
2022/06/13 11:46:56;;;;;;;12.93;2.33;;;16.10;99.90;;;;;;4958868;28;20271;-59
2022/06/13 11:49:39;;;;;;;6.25;1.98;;;16.10;99.90;;;;;;4941874;28;20046;-58
2022/06/13 11:53:35;;;;;;;10.25;2.17;;;16.20;99.90;;;;;;4962703;28;20073;-58
2022/06/13 11:55:00;;;;;;;7.22;1.70;;;16.20;99.90;;;;;;4944516;28;20085;-56
2022/06/13 11:57:37;;;;;;;8.35;1.73;;;16.20;99.90;;;;;;4946520;28;20039;-57
2022/06/13 12:00:26;;;;;;;6.78;1.40;;;16.50;99.90;;;;;;4947636;28;20043;-57
2022/06/13 12:03:04;;;;;;;8.60;1.73;;;17.20;99.90;;;;;;4950952;28;20037;-58
2022/06/13 12:05:37;;;;;;;6.45;1.90;;;17.30;99.90;;;;;;4951876;28;20042;-56
2022/06/13 12:08:14;;;;;;;6.75;1.88;;;17.30;99.90;;;;;;4951529;28;20042;-56
2022/06/13 12:11:02;;;;;;;7.35;1.58;;;17.10;99.50;;;;;;4937116;28;20197;-58
2022/06/13 12:13:32;;;;;;;5.93;1.50;;;17.00;99.50;;;;;;4944268;28;20494;-58
2022/06/13 12:16:10;;;;;;;9.27;1.83;;;16.80;99.70;;;;;;4942277;28;20043;-58
2022/06/13 12:19:07;;;;;;;12.65;2.20;;;17.10;99.90;;;;;;4939250;28;20054;-58
2022/06/13 12:21:52;;;;;;;10.25;2.08;;;17.40;99.90;;;;;;4926176;28;20051;-58
2022/06/13 12:24:30;;;;;;;10.25;1.77;;;17.50;98.00;;;;;;4945357;28;20045;-58
2022/06/13 12:27:12;;;;;;;11.20;1.88;;;17.50;98.20;;;;;;4921085;28;20163;-57
2022/06/13 12:29:58;;;;;;;8.60;2.28;;;17.80;97.80;;;;;;4928811;28;20046;-58
2022/06/13 12:32:38;;;;;;;7.28;2.05;;;17.80;98.00;;;;;;4929281;28;20522;-58
2022/06/13 12:35:36;;;;;;;7.88;1.65;;;17.10;99.30;;;;;;4932306;28;20130;-58
2022/06/13 12:38:23;;;;;;;9.63;1.90;;;16.90;99.30;;;;;;4923139;28;20047;-58
2022/06/13 12:40:57;;;;;;;8.85;1.60;;;16.70;99.90;;;;;;4926676;28;20046;-58
2022/06/13 12:43:30;;;;;;;10.32;2.65;;;16.60;99.90;;;;;;4934236;28;20536;-58
2022/06/13 12:46:50;;;;;;;8.95;1.80;;;16.40;99.90;;;;;;4929532;28;20043;-58
2022/06/13 12:49:55;;;;;;;11.32;2.22;;;16.40;99.90;;;;;;4856535;29;20040;-58
2022/06/13 12:52:35;;;;;;;12.98;2.40;;;16.50;99.90;;;;;;4930674;28;20630;-58
2022/06/13 12:55:13;;;;;;;10.27;2.28;;;16.50;99.80;;;;;;4950192;28;20570;-58
2022/06/13 12:58:06;;;;;;;5.35;1.83;;;16.50;99.50;;;;;;4935276;28;20039;-58
2022/06/13 13:01:02;;;;;;;8.32;1.92;;;16.80;99.90;;;;;;4929730;28;20110;-58
2022/06/13 13:03:46;;;;;;;4.63;1.50;;;16.90;99.80;;;;;;4941524;28;20038;-58
2022/06/13 13:06:16;;;;;;;;;;;16.90;99.20;;;;;;4957823;28;20070;-58
2022/06/13 13:08:53;;;;;;;8.00;1.42;;;16.70;97.70;;;;;;4954015;28;20166;-58
2022/06/13 13:11:38;;;;;;;6.28;1.95;;;16.60;99.50;;;;;;4953249;28;20049;-57
2022/06/13 13:14:17;;;;;;;5.75;1.83;;;16.30;99.90;;;;;;4974297;28;20745;-57
2022/06/13 13:16:58;;;;;;;8.90;1.65;;;16.30;99.90;;;;;;4957787;28;20118;-54
2022/06/13 13:19:41;;;;;;;10.10;2.35;;;16.30;99.90;;;;;;4955673;28;20410;-56
2022/06/13 13:22:30;;;;;;;10.00;2.10;;;16.70;99.90;;;;;;4952127;28;20043;-56
2022/06/13 13:25:04;;;;;;;6.85;1.60;;;17.10;99.90;;;;;;4947907;28;20043;-57
2022/06/13 13:27:44;;;;;;;7.75;1.75;;;17.90;99.90;;;;;;4944122;28;20485;-58
2022/06/13 13:30:19;;;;;;;4.85;1.20;;;18.30;98.90;;;;;;4949806;28;20085;-58
2022/06/13 13:33:00;;;;;;;7.03;1.60;;;18.30;98.00;;;;;;4941675;28;20223;-57
2022/06/13 13:35:36;;;;;;;6.80;1.60;;;18.20;97.00;;;;;;4941284;28;20156;-58
2022/06/13 13:38:24;;;;;;;7.20;2.20;;;17.90;97.40;;;;;;4945209;28;20410;-58
2022/06/13 13:40:59;;;;;;;6.93;1.70;;;18.30;98.80;;;;;;4938102;28;20089;-58
2022/06/13 13:43:29;;;;;;;7.20;1.63;;;18.70;97.80;;;;;;4960670;28;20043;-57